Julian Carroll Airport
KJKL : now visible

Airfield :











YOU CAN JOIN US ON...

 
LOGIN :

Register | Disclaimer

   EN    FR    IT 

 









Legend :    VFR   Marginal VFR   IFR   Intensive IFR   Very Intensive IFR
Visi :
Ceiling :
>= 8 km
>= 3000ft
5 to 8 km
1000 to 3000 ft
1500m to 5 km
500 to 1000 ft
800 to 1500m
200 to 500 ft
< 800m
< 200 ft
Symbols :   Thunderstorms  Fog  Heavy snow  Heavy precipitations  Wind > 20 kt






- Airport Elevation : 1381 ft


KJKL - Julian Carroll

CURRENT METAR :
  • 260353Z AUTO 00000KT 10SM CLR 23/19 A3009 RMK AO2 SLP173 T02280194

EXPIRED METARs :
  • 260253Z AUTO 00000KT 10SM CLR 23/19 A3009 RMK AO2 SLP175 T02330194 50006
  • 260153Z AUTO 00000KT 10SM SCT120 24/19 A3010 RMK AO2 SLP177 T02390194

TAF KJKL
Valid from the 26 at 00:00 until the 27 at 00:00 UTC


252343Z 2600/2624 VRB03KT P6SM SCT025 BKN200
FM260600 00000KT P6SM SCT200
TEMPO 2609/2612 3SM BR
FM261200 VRB03KT P6SM BKN200
FM261600 VRB04KT P6SM VCTS SCT040CB BKN100
KZID FIR / North America



MET'MAP, your aeronautical weather chart ! - Copyright ORBIFLY December 2007 - Disclaimer

ORBIFLY MET'MAP TEAM :

Programming & Development : Alexandra Zaïnal
Concept & original design : Baudouin d'Aumeries
Assistance for programming : Marc-Olivier Méhu
Technical & hardware support : Manuel Goepfert

Contact : metmap@orbifly.com




SOURCES & CREDITS :

   NOAA       Earth
Advisory